sensor_id;sensor_type;location;lat;lon;timestamp;P1;durP1;ratioP1;P2;durP2;ratioP2
23888;SDS011;12125;40.102;18.326;2022-12-18T00:01:52;32.88;;;25.25;;
23888;SDS011;12125;40.102;18.326;2022-12-18T00:04:20;33.50;;;24.50;;
23888;SDS011;12125;40.102;18.326;2022-12-18T00:06:47;29.08;;;25.88;;
23888;SDS011;12125;40.102;18.326;2022-12-18T00:09:14;30.90;;;25.80;;
23888;SDS011;12125;40.102;18.326;2022-12-18T00:11:41;29.67;;;26.55;;
23888;SDS011;12125;40.102;18.326;2022-12-18T00:14:08;29.88;;;26.08;;
23888;SDS011;12125;40.102;18.326;2022-12-18T00:16:35;29.13;;;25.27;;
23888;SDS011;12125;40.102;18.326;2022-12-18T00:19:02;30.13;;;25.95;;
23888;SDS011;12125;40.102;18.326;2022-12-18T00:21:29;28.08;;;25.33;;
23888;SDS011;12125;40.102;18.326;2022-12-18T00:23:56;30.45;;;25.83;;
23888;SDS011;12125;40.102;18.326;2022-12-18T00:26:24;32.65;;;29.05;;
23888;SDS011;12125;40.102;18.326;2022-12-18T00:28:54;29.17;;;25.45;;
23888;SDS011;12125;40.102;18.326;2022-12-18T00:31:22;25.83;;;23.10;;
23888;SDS011;12125;40.102;18.326;2022-12-18T00:33:51;29.05;;;25.95;;
23888;SDS011;12125;40.102;18.326;2022-12-18T00:36:20;27.60;;;24.83;;
23888;SDS011;12125;40.102;18.326;2022-12-18T00:38:47;33.95;;;29.67;;
23888;SDS011;12125;40.102;18.326;2022-12-18T00:41:17;29.88;;;26.80;;
23888;SDS011;12125;40.102;18.326;2022-12-18T00:44:04;27.67;;;24.55;;
23888;SDS011;12125;40.102;18.326;2022-12-18T00:46:31;26.60;;;23.92;;
23888;SDS011;12125;40.102;18.326;2022-12-18T00:48:57;31.05;;;27.92;;
23888;SDS011;12125;40.102;18.326;2022-12-18T00:51:24;27.63;;;24.17;;
23888;SDS011;12125;40.102;18.326;2022-12-18T00:53:52;32.13;;;28.08;;
23888;SDS011;12125;40.102;18.326;2022-12-18T00:56:18;32.17;;;28.45;;
23888;SDS011;12125;40.102;18.326;2022-12-18T00:58:48;29.70;;;26.25;;
23888;SDS011;12125;40.102;18.326;2022-12-18T01:01:19;30.08;;;26.83;;
23888;SDS011;12125;40.102;18.326;2022-12-18T01:03:45;31.42;;;28.17;;
23888;SDS011;12125;40.102;18.326;2022-12-18T01:06:14;33.63;;;29.75;;
23888;SDS011;12125;40.102;18.326;2022-12-18T01:08:46;29.35;;;26.27;;
23888;SDS011;12125;40.102;18.326;2022-12-18T01:11:14;29.13;;;26.05;;
23888;SDS011;12125;40.102;18.326;2022-12-18T01:13:41;34.13;;;29.83;;
23888;SDS011;12125;40.102;18.326;2022-12-18T01:16:08;32.40;;;28.90;;
23888;SDS011;12125;40.102;18.326;2022-12-18T01:18:37;34.70;;;28.90;;
23888;SDS011;12125;40.102;18.326;2022-12-18T01:21:09;32.22;;;27.95;;
23888;SDS011;12125;40.102;18.326;2022-12-18T01:23:36;31.92;;;28.40;;
23888;SDS011;12125;40.102;18.326;2022-12-18T01:26:10;30.95;;;27.63;;
23888;SDS011;12125;40.102;18.326;2022-12-18T01:28:37;32.30;;;28.95;;
23888;SDS011;12125;40.102;18.326;2022-12-18T01:31:14;30.02;;;26.75;;
23888;SDS011;12125;40.102;18.326;2022-12-18T01:33:41;30.52;;;27.23;;
23888;SDS011;12125;40.102;18.326;2022-12-18T01:36:08;33.03;;;27.75;;
23888;SDS011;12125;40.102;18.326;2022-12-18T01:38:35;29.00;;;25.98;;
23888;SDS011;12125;40.102;18.326;2022-12-18T01:41:01;28.17;;;25.25;;
23888;SDS011;12125;40.102;18.326;2022-12-18T01:43:43;30.50;;;26.23;;
23888;SDS011;12125;40.102;18.326;2022-12-18T01:46:10;29.95;;;26.85;;
23888;SDS011;12125;40.102;18.326;2022-12-18T01:48:36;32.40;;;28.48;;
23888;SDS011;12125;40.102;18.326;2022-12-18T01:51:04;37.33;;;30.23;;
23888;SDS011;12125;40.102;18.326;2022-12-18T01:53:31;33.13;;;26.52;;
23888;SDS011;12125;40.102;18.326;2022-12-18T01:55:58;30.98;;;25.23;;
23888;SDS011;12125;40.102;18.326;2022-12-18T01:58:43;29.60;;;26.55;;
23888;SDS011;12125;40.102;18.326;2022-12-18T02:01:14;29.98;;;26.80;;
23888;SDS011;12125;40.102;18.326;2022-12-18T02:03:42;30.35;;;26.75;;
23888;SDS011;12125;40.102;18.326;2022-12-18T02:06:13;29.33;;;26.23;;
23888;SDS011;12125;40.102;18.326;2022-12-18T02:13:53;30.90;;;27.55;;
23888;SDS011;12125;40.102;18.326;2022-12-18T02:16:33;31.02;;;27.80;;
23888;SDS011;12125;40.102;18.326;2022-12-18T02:19:06;30.55;;;26.70;;
23888;SDS011;12125;40.102;18.326;2022-12-18T02:24:31;28.10;;;25.08;;
23888;SDS011;12125;40.102;18.326;2022-12-18T02:27:03;29.90;;;26.80;;
23888;SDS011;12125;40.102;18.326;2022-12-18T02:32:02;30.25;;;24.60;;
23888;SDS011;12125;40.102;18.326;2022-12-18T02:34:31;25.80;;;23.10;;
23888;SDS011;12125;40.102;18.326;2022-12-18T02:37:02;29.13;;;23.70;;
23888;SDS011;12125;40.102;18.326;2022-12-18T02:39:36;28.85;;;25.40;;
23888;SDS011;12125;40.102;18.326;2022-12-18T02:42:04;26.15;;;23.30;;
23888;SDS011;12125;40.102;18.326;2022-12-18T02:44:35;27.80;;;24.92;;
23888;SDS011;12125;40.102;18.326;2022-12-18T02:47:17;26.73;;;23.65;;
23888;SDS011;12125;40.102;18.326;2022-12-18T02:49:55;34.08;;;25.67;;
23888;SDS011;12125;40.102;18.326;2022-12-18T02:52:39;31.85;;;26.60;;
23888;SDS011;12125;40.102;18.326;2022-12-18T02:57:50;39.90;;;31.98;;
23888;SDS011;12125;40.102;18.326;2022-12-18T03:00:24;35.80;;;30.23;;
23888;SDS011;12125;40.102;18.326;2022-12-18T03:02:56;37.53;;;32.28;;
23888;SDS011;12125;40.102;18.326;2022-12-18T03:05:32;46.05;;;35.40;;
23888;SDS011;12125;40.102;18.326;2022-12-18T03:08:11;46.00;;;38.25;;
23888;SDS011;12125;40.102;18.326;2022-12-18T03:10:41;46.33;;;39.28;;
23888;SDS011;12125;40.102;18.326;2022-12-18T03:13:09;48.60;;;39.90;;
23888;SDS011;12125;40.102;18.326;2022-12-18T03:15:41;44.88;;;37.22;;
23888;SDS011;12125;40.102;18.326;2022-12-18T03:18:16;55.20;;;41.88;;
23888;SDS011;12125;40.102;18.326;2022-12-18T03:20:45;42.20;;;34.67;;
23888;SDS011;12125;40.102;18.326;2022-12-18T03:23:17;36.97;;;32.20;;
23888;SDS011;12125;40.102;18.326;2022-12-18T03:25:47;45.85;;;37.40;;
23888;SDS011;12125;40.102;18.326;2022-12-18T03:28:16;43.00;;;34.67;;
23888;SDS011;12125;40.102;18.326;2022-12-18T03:30:49;36.75;;;32.80;;
23888;SDS011;12125;40.102;18.326;2022-12-18T03:33:24;39.08;;;32.95;;
23888;SDS011;12125;40.102;18.326;2022-12-18T03:35:54;39.80;;;33.88;;
23888;SDS011;12125;40.102;18.326;2022-12-18T03:38:21;43.60;;;36.13;;
23888;SDS011;12125;40.102;18.326;2022-12-18T03:41:03;37.72;;;31.38;;
23888;SDS011;12125;40.102;18.326;2022-12-18T03:43:48;38.30;;;30.38;;
23888;SDS011;12125;40.102;18.326;2022-12-18T03:51:39;31.38;;;27.35;;
23888;SDS011;12125;40.102;18.326;2022-12-18T03:54:08;30.67;;;26.33;;
23888;SDS011;12125;40.102;18.326;2022-12-18T03:56:41;27.30;;;22.25;;
23888;SDS011;12125;40.102;18.326;2022-12-18T03:59:10;24.27;;;21.02;;
23888;SDS011;12125;40.102;18.326;2022-12-18T04:01:39;22.52;;;20.13;;
23888;SDS011;12125;40.102;18.326;2022-12-18T04:04:09;24.13;;;19.38;;
23888;SDS011;12125;40.102;18.326;2022-12-18T04:06:38;22.58;;;18.98;;
23888;SDS011;12125;40.102;18.326;2022-12-18T04:09:08;20.83;;;17.77;;
23888;SDS011;12125;40.102;18.326;2022-12-18T04:11:39;24.77;;;18.15;;
23888;SDS011;12125;40.102;18.326;2022-12-18T04:14:07;22.67;;;18.98;;
23888;SDS011;12125;40.102;18.326;2022-12-18T04:16:33;21.98;;;17.52;;
23888;SDS011;12125;40.102;18.326;2022-12-18T04:19:03;21.98;;;16.50;;
23888;SDS011;12125;40.102;18.326;2022-12-18T04:21:36;24.50;;;19.83;;
23888;SDS011;12125;40.102;18.326;2022-12-18T04:24:03;22.17;;;18.00;;
23888;SDS011;12125;40.102;18.326;2022-12-18T04:26:31;23.33;;;19.40;;
23888;SDS011;12125;40.102;18.326;2022-12-18T04:29:11;23.33;;;18.15;;
23888;SDS011;12125;40.102;18.326;2022-12-18T04:31:38;26.38;;;20.23;;
23888;SDS011;12125;40.102;18.326;2022-12-18T04:34:05;20.77;;;17.10;;
23888;SDS011;12125;40.102;18.326;2022-12-18T04:36:38;20.00;;;17.00;;
23888;SDS011;12125;40.102;18.326;2022-12-18T04:39:06;23.08;;;16.83;;
23888;SDS011;12125;40.102;18.326;2022-12-18T04:41:33;22.70;;;16.92;;
23888;SDS011;12125;40.102;18.326;2022-12-18T04:44:00;23.02;;;17.40;;
23888;SDS011;12125;40.102;18.326;2022-12-18T04:46:27;23.17;;;16.85;;
23888;SDS011;12125;40.102;18.326;2022-12-18T04:48:54;21.40;;;18.52;;
23888;SDS011;12125;40.102;18.326;2022-12-18T04:51:20;21.42;;;16.83;;
23888;SDS011;12125;40.102;18.326;2022-12-18T04:53:47;19.23;;;16.25;;
23888;SDS011;12125;40.102;18.326;2022-12-18T04:56:14;23.30;;;19.02;;
23888;SDS011;12125;40.102;18.326;2022-12-18T04:58:41;25.75;;;18.98;;
23888;SDS011;12125;40.102;18.326;2022-12-18T05:01:08;25.48;;;18.70;;
23888;SDS011;12125;40.102;18.326;2022-12-18T05:03:36;26.45;;;20.33;;
23888;SDS011;12125;40.102;18.326;2022-12-18T05:06:03;21.73;;;18.73;;
23888;SDS011;12125;40.102;18.326;2022-12-18T05:08:30;19.90;;;17.67;;
23888;SDS011;12125;40.102;18.326;2022-12-18T05:11:01;19.13;;;16.60;;
23888;SDS011;12125;40.102;18.326;2022-12-18T05:13:28;24.35;;;19.10;;
23888;SDS011;12125;40.102;18.326;2022-12-18T05:15:57;24.98;;;18.27;;
23888;SDS011;12125;40.102;18.326;2022-12-18T05:18:24;24.73;;;19.33;;
23888;SDS011;12125;40.102;18.326;2022-12-18T05:20:52;20.23;;;17.95;;
23888;SDS011;12125;40.102;18.326;2022-12-18T05:23:19;28.40;;;18.73;;
23888;SDS011;12125;40.102;18.326;2022-12-18T05:25:47;18.42;;;15.63;;
23888;SDS011;12125;40.102;18.326;2022-12-18T05:28:17;22.63;;;17.52;;
23888;SDS011;12125;40.102;18.326;2022-12-18T05:30:49;19.25;;;16.30;;
23888;SDS011;12125;40.102;18.326;2022-12-18T05:33:17;22.90;;;17.75;;
23888;SDS011;12125;40.102;18.326;2022-12-18T05:35:44;21.70;;;16.45;;
23888;SDS011;12125;40.102;18.326;2022-12-18T05:38:11;20.00;;;15.45;;
23888;SDS011;12125;40.102;18.326;2022-12-18T05:40:40;21.60;;;16.00;;
23888;SDS011;12125;40.102;18.326;2022-12-18T05:43:07;18.38;;;15.23;;
23888;SDS011;12125;40.102;18.326;2022-12-18T05:45:36;18.52;;;14.57;;
23888;SDS011;12125;40.102;18.326;2022-12-18T05:48:03;14.60;;;11.70;;
23888;SDS011;12125;40.102;18.326;2022-12-18T05:50:30;19.83;;;12.05;;
23888;SDS011;12125;40.102;18.326;2022-12-18T05:53:01;12.75;;;10.50;;
23888;SDS011;12125;40.102;18.326;2022-12-18T05:55:28;13.55;;;11.48;;
23888;SDS011;12125;40.102;18.326;2022-12-18T05:57:54;18.83;;;11.27;;
23888;SDS011;12125;40.102;18.326;2022-12-18T06:00:21;12.50;;;10.18;;
23888;SDS011;12125;40.102;18.326;2022-12-18T06:02:48;13.85;;;10.23;;
23888;SDS011;12125;40.102;18.326;2022-12-18T06:05:15;13.82;;;10.45;;
23888;SDS011;12125;40.102;18.326;2022-12-18T06:07:41;12.23;;;9.30;;
23888;SDS011;12125;40.102;18.326;2022-12-18T06:10:08;12.32;;;8.50;;
23888;SDS011;12125;40.102;18.326;2022-12-18T06:12:35;12.68;;;9.43;;
23888;SDS011;12125;40.102;18.326;2022-12-18T06:15:01;10.57;;;8.60;;
23888;SDS011;12125;40.102;18.326;2022-12-18T06:17:32;13.38;;;9.27;;
23888;SDS011;12125;40.102;18.326;2022-12-18T06:19:59;12.57;;;8.48;;
23888;SDS011;12125;40.102;18.326;2022-12-18T06:22:27;12.40;;;8.68;;
23888;SDS011;12125;40.102;18.326;2022-12-18T06:24:53;10.90;;;8.95;;
23888;SDS011;12125;40.102;18.326;2022-12-18T06:27:20;17.75;;;10.13;;
23888;SDS011;12125;40.102;18.326;2022-12-18T06:29:46;14.52;;;8.77;;
23888;SDS011;12125;40.102;18.326;2022-12-18T06:32:13;14.30;;;10.07;;
23888;SDS011;12125;40.102;18.326;2022-12-18T06:34:39;10.30;;;7.82;;
23888;SDS011;12125;40.102;18.326;2022-12-18T06:37:07;14.52;;;8.77;;
23888;SDS011;12125;40.102;18.326;2022-12-18T06:39:33;13.38;;;8.93;;
23888;SDS011;12125;40.102;18.326;2022-12-18T06:42:00;14.45;;;9.40;;
23888;SDS011;12125;40.102;18.326;2022-12-18T06:44:26;12.77;;;7.82;;
23888;SDS011;12125;40.102;18.326;2022-12-18T06:46:56;10.68;;;7.45;;
23888;SDS011;12125;40.102;18.326;2022-12-18T06:49:31;12.23;;;8.85;;
23888;SDS011;12125;40.102;18.326;2022-12-18T06:51:58;11.68;;;8.40;;
23888;SDS011;12125;40.102;18.326;2022-12-18T06:54:28;10.38;;;7.80;;
23888;SDS011;12125;40.102;18.326;2022-12-18T06:56:55;15.43;;;9.27;;
23888;SDS011;12125;40.102;18.326;2022-12-18T06:59:22;11.15;;;8.90;;
23888;SDS011;12125;40.102;18.326;2022-12-18T07:01:49;11.90;;;7.90;;
23888;SDS011;12125;40.102;18.326;2022-12-18T07:04:15;12.00;;;7.47;;
23888;SDS011;12125;40.102;18.326;2022-12-18T07:06:42;10.85;;;8.48;;
23888;SDS011;12125;40.102;18.326;2022-12-18T07:09:09;12.55;;;8.38;;
23888;SDS011;12125;40.102;18.326;2022-12-18T07:11:36;13.23;;;8.23;;
23888;SDS011;12125;40.102;18.326;2022-12-18T07:14:02;11.52;;;8.00;;
23888;SDS011;12125;40.102;18.326;2022-12-18T07:16:29;11.63;;;8.65;;
23888;SDS011;12125;40.102;18.326;2022-12-18T07:18:56;10.23;;;7.65;;
23888;SDS011;12125;40.102;18.326;2022-12-18T07:21:23;13.15;;;8.65;;
23888;SDS011;12125;40.102;18.326;2022-12-18T07:23:50;12.75;;;7.15;;
23888;SDS011;12125;40.102;18.326;2022-12-18T07:26:18;12.90;;;7.05;;
23888;SDS011;12125;40.102;18.326;2022-12-18T07:28:45;16.08;;;8.27;;
23888;SDS011;12125;40.102;18.326;2022-12-18T07:31:18;11.45;;;6.65;;
23888;SDS011;12125;40.102;18.326;2022-12-18T07:33:45;10.77;;;7.10;;
23888;SDS011;12125;40.102;18.326;2022-12-18T07:36:12;14.10;;;8.25;;
23888;SDS011;12125;40.102;18.326;2022-12-18T07:38:39;13.85;;;7.90;;
23888;SDS011;12125;40.102;18.326;2022-12-18T07:41:10;10.35;;;7.05;;
23888;SDS011;12125;40.102;18.326;2022-12-18T07:43:38;14.07;;;7.95;;
23888;SDS011;12125;40.102;18.326;2022-12-18T07:46:05;11.70;;;8.00;;
23888;SDS011;12125;40.102;18.326;2022-12-18T07:48:31;14.90;;;7.97;;
23888;SDS011;12125;40.102;18.326;2022-12-18T07:50:59;11.93;;;8.18;;
23888;SDS011;12125;40.102;18.326;2022-12-18T07:53:25;13.10;;;7.32;;
23888;SDS011;12125;40.102;18.326;2022-12-18T07:55:59;13.38;;;7.63;;
23888;SDS011;12125;40.102;18.326;2022-12-18T07:58:26;16.83;;;8.23;;
23888;SDS011;12125;40.102;18.326;2022-12-18T08:00:52;19.35;;;8.00;;
23888;SDS011;12125;40.102;18.326;2022-12-18T08:03:20;15.63;;;7.10;;
23888;SDS011;12125;40.102;18.326;2022-12-18T08:05:47;13.07;;;7.22;;
23888;SDS011;12125;40.102;18.326;2022-12-18T08:08:14;13.18;;;7.03;;
23888;SDS011;12125;40.102;18.326;2022-12-18T08:10:41;9.98;;;7.50;;
23888;SDS011;12125;40.102;18.326;2022-12-18T08:13:07;9.82;;;7.75;;
23888;SDS011;12125;40.102;18.326;2022-12-18T08:15:34;13.52;;;8.00;;
23888;SDS011;12125;40.102;18.326;2022-12-18T08:18:02;16.75;;;8.68;;
23888;SDS011;12125;40.102;18.326;2022-12-18T08:20:30;13.15;;;7.75;;
23888;SDS011;12125;40.102;18.326;2022-12-18T08:22:58;11.20;;;6.93;;
23888;SDS011;12125;40.102;18.326;2022-12-18T08:25:25;8.30;;;5.70;;
23888;SDS011;12125;40.102;18.326;2022-12-18T08:27:53;9.95;;;5.78;;
23888;SDS011;12125;40.102;18.326;2022-12-18T08:30:22;6.93;;;5.07;;
23888;SDS011;12125;40.102;18.326;2022-12-18T08:32:51;10.68;;;6.07;;
23888;SDS011;12125;40.102;18.326;2022-12-18T08:35:18;11.18;;;6.25;;
23888;SDS011;12125;40.102;18.326;2022-12-18T08:37:46;10.32;;;6.15;;
23888;SDS011;12125;40.102;18.326;2022-12-18T08:40:13;12.52;;;5.63;;
23888;SDS011;12125;40.102;18.326;2022-12-18T08:42:40;9.68;;;6.30;;
23888;SDS011;12125;40.102;18.326;2022-12-18T08:45:27;9.07;;;5.90;;
23888;SDS011;12125;40.102;18.326;2022-12-18T08:47:56;13.07;;;6.13;;
23888;SDS011;12125;40.102;18.326;2022-12-18T08:50:23;12.73;;;6.43;;
23888;SDS011;12125;40.102;18.326;2022-12-18T08:52:56;14.30;;;5.38;;
23888;SDS011;12125;40.102;18.326;2022-12-18T08:55:24;9.55;;;5.43;;
23888;SDS011;12125;40.102;18.326;2022-12-18T08:57:51;10.93;;;5.65;;
23888;SDS011;12125;40.102;18.326;2022-12-18T09:00:19;10.15;;;5.22;;
23888;SDS011;12125;40.102;18.326;2022-12-18T09:02:48;11.27;;;5.75;;
23888;SDS011;12125;40.102;18.326;2022-12-18T09:05:15;15.10;;;5.43;;
23888;SDS011;12125;40.102;18.326;2022-12-18T09:07:45;12.80;;;5.40;;
23888;SDS011;12125;40.102;18.326;2022-12-18T09:10:19;11.10;;;5.00;;
23888;SDS011;12125;40.102;18.326;2022-12-18T09:12:55;8.77;;;4.50;;
23888;SDS011;12125;40.102;18.326;2022-12-18T09:15:32;11.20;;;5.30;;
23888;SDS011;12125;40.102;18.326;2022-12-18T09:17:59;13.40;;;5.13;;
23888;SDS011;12125;40.102;18.326;2022-12-18T09:20:30;11.93;;;5.03;;
23888;SDS011;12125;40.102;18.326;2022-12-18T09:22:58;13.30;;;4.72;;
23888;SDS011;12125;40.102;18.326;2022-12-18T09:25:28;10.35;;;4.35;;
23888;SDS011;12125;40.102;18.326;2022-12-18T09:28:10;10.80;;;4.20;;
23888;SDS011;12125;40.102;18.326;2022-12-18T09:30:47;9.45;;;5.10;;
23888;SDS011;12125;40.102;18.326;2022-12-18T09:33:16;10.60;;;4.95;;
23888;SDS011;12125;40.102;18.326;2022-12-18T09:35:53;8.60;;;3.78;;
23888;SDS011;12125;40.102;18.326;2022-12-18T09:38:37;11.10;;;4.32;;
23888;SDS011;12125;40.102;18.326;2022-12-18T09:43:53;10.60;;;4.07;;
23888;SDS011;12125;40.102;18.326;2022-12-18T09:46:32;9.02;;;4.13;;
23888;SDS011;12125;40.102;18.326;2022-12-18T09:49:01;12.02;;;4.68;;
23888;SDS011;12125;40.102;18.326;2022-12-18T09:51:30;7.32;;;3.63;;
23888;SDS011;12125;40.102;18.326;2022-12-18T09:54:01;7.93;;;3.92;;
23888;SDS011;12125;40.102;18.326;2022-12-18T09:56:31;10.30;;;4.32;;
23888;SDS011;12125;40.102;18.326;2022-12-18T09:59:02;7.93;;;3.50;;
23888;SDS011;12125;40.102;18.326;2022-12-18T10:01:30;13.18;;;4.15;;
23888;SDS011;12125;40.102;18.326;2022-12-18T10:03:59;7.75;;;3.55;;
23888;SDS011;12125;40.102;18.326;2022-12-18T10:06:29;12.07;;;4.05;;
23888;SDS011;12125;40.102;18.326;2022-12-18T10:09:02;6.50;;;3.05;;
23888;SDS011;12125;40.102;18.326;2022-12-18T10:11:40;8.63;;;3.05;;
23888;SDS011;12125;40.102;18.326;2022-12-18T10:14:21;4.97;;;3.00;;
23888;SDS011;12125;40.102;18.326;2022-12-18T10:16:53;8.38;;;3.75;;
23888;SDS011;12125;40.102;18.326;2022-12-18T10:19:33;5.25;;;3.15;;
23888;SDS011;12125;40.102;18.326;2022-12-18T10:22:09;6.03;;;3.53;;
23888;SDS011;12125;40.102;18.326;2022-12-18T10:25:28;5.65;;;2.95;;
23888;SDS011;12125;40.102;18.326;2022-12-18T10:27:34;5.53;;;2.70;;
23888;SDS011;12125;40.102;18.326;2022-12-18T10:30:04;8.05;;;2.95;;
23888;SDS011;12125;40.102;18.326;2022-12-18T10:32:38;7.10;;;2.75;;
23888;SDS011;12125;40.102;18.326;2022-12-18T10:35:07;11.95;;;3.92;;
23888;SDS011;12125;40.102;18.326;2022-12-18T10:37:36;5.50;;;3.13;;
23888;SDS011;12125;40.102;18.326;2022-12-18T10:40:23;3.70;;;2.38;;
23888;SDS011;12125;40.102;18.326;2022-12-18T10:43:03;7.07;;;3.05;;
23888;SDS011;12125;40.102;18.326;2022-12-18T10:45:30;7.50;;;2.40;;
23888;SDS011;12125;40.102;18.326;2022-12-18T10:47:59;5.10;;;2.55;;
23888;SDS011;12125;40.102;18.326;2022-12-18T10:50:29;5.10;;;2.33;;
23888;SDS011;12125;40.102;18.326;2022-12-18T10:52:57;5.05;;;2.45;;
23888;SDS011;12125;40.102;18.326;2022-12-18T10:55:26;7.30;;;2.50;;
23888;SDS011;12125;40.102;18.326;2022-12-18T10:57:54;5.00;;;2.25;;
23888;SDS011;12125;40.102;18.326;2022-12-18T11:00:23;6.55;;;2.38;;
23888;SDS011;12125;40.102;18.326;2022-12-18T11:02:51;3.63;;;1.88;;
23888;SDS011;12125;40.102;18.326;2022-12-18T11:07:54;5.47;;;1.63;;
23888;SDS011;12125;40.102;18.326;2022-12-18T11:10:25;8.07;;;2.60;;
23888;SDS011;12125;40.102;18.326;2022-12-18T11:12:52;4.85;;;2.25;;
23888;SDS011;12125;40.102;18.326;2022-12-18T11:15:20;3.83;;;2.10;;
23888;SDS011;12125;40.102;18.326;2022-12-18T11:17:49;3.25;;;1.58;;
23888;SDS011;12125;40.102;18.326;2022-12-18T11:20:21;3.53;;;1.92;;
23888;SDS011;12125;40.102;18.326;2022-12-18T11:23:00;6.75;;;1.95;;
23888;SDS011;12125;40.102;18.326;2022-12-18T11:25:28;6.53;;;2.60;;
23888;SDS011;12125;40.102;18.326;2022-12-18T11:27:56;4.30;;;2.10;;
23888;SDS011;12125;40.102;18.326;2022-12-18T11:30:24;4.57;;;2.50;;
23888;SDS011;12125;40.102;18.326;2022-12-18T11:33:15;4.15;;;2.40;;
23888;SDS011;12125;40.102;18.326;2022-12-18T11:35:53;5.28;;;2.80;;
23888;SDS011;12125;40.102;18.326;2022-12-18T11:38:40;5.50;;;1.90;;
23888;SDS011;12125;40.102;18.326;2022-12-18T11:44:18;3.47;;;1.77;;
23888;SDS011;12125;40.102;18.326;2022-12-18T11:46:51;5.65;;;2.38;;
23888;SDS011;12125;40.102;18.326;2022-12-18T11:49:32;3.28;;;2.00;;
23888;SDS011;12125;40.102;18.326;2022-12-18T11:52:22;4.82;;;1.77;;
23888;SDS011;12125;40.102;18.326;2022-12-18T11:54:51;7.40;;;2.17;;
23888;SDS011;12125;40.102;18.326;2022-12-18T11:57:54;3.72;;;1.75;;
23888;SDS011;12125;40.102;18.326;2022-12-18T12:03:03;7.18;;;2.83;;
23888;SDS011;12125;40.102;18.326;2022-12-18T12:05:41;4.75;;;3.00;;
23888;SDS011;12125;40.102;18.326;2022-12-18T12:21:06;5.00;;;2.20;;
23888;SDS011;12125;40.102;18.326;2022-12-18T12:23:55;3.10;;;2.08;;
23888;SDS011;12125;40.102;18.326;2022-12-18T12:26:33;3.40;;;2.22;;
23888;SDS011;12125;40.102;18.326;2022-12-18T12:29:09;3.85;;;2.25;;
23888;SDS011;12125;40.102;18.326;2022-12-18T12:34:14;14.32;;;3.67;;
23888;SDS011;12125;40.102;18.326;2022-12-18T12:39:11;7.05;;;2.40;;
23888;SDS011;12125;40.102;18.326;2022-12-18T12:41:40;6.68;;;2.33;;
23888;SDS011;12125;40.102;18.326;2022-12-18T12:47:33;4.55;;;3.08;;
23888;SDS011;12125;40.102;18.326;2022-12-18T12:50:14;5.65;;;2.50;;
23888;SDS011;12125;40.102;18.326;2022-12-18T12:52:54;4.13;;;2.47;;
23888;SDS011;12125;40.102;18.326;2022-12-18T12:55:24;5.82;;;2.70;;
23888;SDS011;12125;40.102;18.326;2022-12-18T12:57:59;4.97;;;2.38;;
23888;SDS011;12125;40.102;18.326;2022-12-18T13:00:31;4.63;;;2.92;;
23888;SDS011;12125;40.102;18.326;2022-12-18T13:05:40;4.95;;;3.22;;
23888;SDS011;12125;40.102;18.326;2022-12-18T13:08:10;5.93;;;2.30;;
23888;SDS011;12125;40.102;18.326;2022-12-18T13:10:40;4.40;;;2.10;;
23888;SDS011;12125;40.102;18.326;2022-12-18T13:13:10;5.95;;;1.92;;
23888;SDS011;12125;40.102;18.326;2022-12-18T13:18:13;5.35;;;2.78;;
23888;SDS011;12125;40.102;18.326;2022-12-18T13:20:42;4.25;;;2.33;;
23888;SDS011;12125;40.102;18.326;2022-12-18T13:25:55;6.05;;;2.70;;
23888;SDS011;12125;40.102;18.326;2022-12-18T13:29:07;6.55;;;2.90;;
23888;SDS011;12125;40.102;18.326;2022-12-18T13:31:09;4.70;;;2.53;;
23888;SDS011;12125;40.102;18.326;2022-12-18T13:33:38;5.82;;;2.72;;
23888;SDS011;12125;40.102;18.326;2022-12-18T13:36:16;9.32;;;3.42;;
23888;SDS011;12125;40.102;18.326;2022-12-18T13:41:50;8.02;;;3.28;;
23888;SDS011;12125;40.102;18.326;2022-12-18T13:44:33;6.18;;;3.10;;
23888;SDS011;12125;40.102;18.326;2022-12-18T13:47:04;8.18;;;2.85;;
23888;SDS011;12125;40.102;18.326;2022-12-18T13:49:36;6.97;;;3.03;;
23888;SDS011;12125;40.102;18.326;2022-12-18T13:52:26;6.63;;;3.20;;
23888;SDS011;12125;40.102;18.326;2022-12-18T13:54:52;6.70;;;2.95;;
23888;SDS011;12125;40.102;18.326;2022-12-18T13:57:30;4.28;;;2.25;;
23888;SDS011;12125;40.102;18.326;2022-12-18T13:59:57;9.73;;;3.15;;
23888;SDS011;12125;40.102;18.326;2022-12-18T14:02:28;4.85;;;2.50;;
23888;SDS011;12125;40.102;18.326;2022-12-18T14:04:55;6.53;;;2.42;;
23888;SDS011;12125;40.102;18.326;2022-12-18T14:07:25;5.47;;;2.80;;
23888;SDS011;12125;40.102;18.326;2022-12-18T14:10:02;5.30;;;2.72;;
23888;SDS011;12125;40.102;18.326;2022-12-18T14:12:30;6.78;;;2.70;;
23888;SDS011;12125;40.102;18.326;2022-12-18T14:15:31;4.88;;;2.33;;
23888;SDS011;12125;40.102;18.326;2022-12-18T14:18:01;5.13;;;2.17;;
23888;SDS011;12125;40.102;18.326;2022-12-18T14:20:29;4.70;;;2.08;;
23888;SDS011;12125;40.102;18.326;2022-12-18T14:23:00;3.53;;;2.90;;
23888;SDS011;12125;40.102;18.326;2022-12-18T14:25:34;4.88;;;2.72;;
23888;SDS011;12125;40.102;18.326;2022-12-18T14:28:02;11.35;;;3.25;;
23888;SDS011;12125;40.102;18.326;2022-12-18T14:30:38;6.93;;;2.65;;
23888;SDS011;12125;40.102;18.326;2022-12-18T14:33:15;7.95;;;3.67;;
23888;SDS011;12125;40.102;18.326;2022-12-18T14:35:58;7.53;;;3.35;;
23888;SDS011;12125;40.102;18.326;2022-12-18T14:38:32;8.13;;;3.65;;
23888;SDS011;12125;40.102;18.326;2022-12-18T14:41:11;6.32;;;3.42;;
23888;SDS011;12125;40.102;18.326;2022-12-18T14:43:43;8.80;;;3.88;;
23888;SDS011;12125;40.102;18.326;2022-12-18T14:51:54;6.65;;;3.83;;
23888;SDS011;12125;40.102;18.326;2022-12-18T14:54:22;5.68;;;3.30;;
23888;SDS011;12125;40.102;18.326;2022-12-18T14:57:05;7.40;;;3.40;;
23888;SDS011;12125;40.102;18.326;2022-12-18T14:59:34;7.22;;;3.53;;
23888;SDS011;12125;40.102;18.326;2022-12-18T15:04:38;7.90;;;3.65;;
23888;SDS011;12125;40.102;18.326;2022-12-18T15:07:08;10.55;;;4.60;;
23888;SDS011;12125;40.102;18.326;2022-12-18T15:09:36;10.23;;;4.90;;
23888;SDS011;12125;40.102;18.326;2022-12-18T15:12:03;7.35;;;4.15;;
23888;SDS011;12125;40.102;18.326;2022-12-18T15:14:34;11.45;;;4.55;;
23888;SDS011;12125;40.102;18.326;2022-12-18T15:17:02;6.15;;;3.78;;
23888;SDS011;12125;40.102;18.326;2022-12-18T15:21:59;9.57;;;4.50;;
23888;SDS011;12125;40.102;18.326;2022-12-18T15:24:27;9.07;;;4.22;;
23888;SDS011;12125;40.102;18.326;2022-12-18T15:26:56;6.05;;;3.95;;
23888;SDS011;12125;40.102;18.326;2022-12-18T15:29:23;11.88;;;4.78;;
23888;SDS011;12125;40.102;18.326;2022-12-18T15:32:00;8.40;;;4.05;;
23888;SDS011;12125;40.102;18.326;2022-12-18T15:34:27;9.50;;;4.68;;
23888;SDS011;12125;40.102;18.326;2022-12-18T15:36:54;9.38;;;4.55;;
23888;SDS011;12125;40.102;18.326;2022-12-18T15:39:21;33.42;;;16.90;;
23888;SDS011;12125;40.102;18.326;2022-12-18T15:41:48;21.15;;;12.25;;
23888;SDS011;12125;40.102;18.326;2022-12-18T15:44:33;13.35;;;7.22;;
23888;SDS011;12125;40.102;18.326;2022-12-18T15:47:00;11.35;;;6.82;;
23888;SDS011;12125;40.102;18.326;2022-12-18T15:49:26;20.30;;;14.80;;
23888;SDS011;12125;40.102;18.326;2022-12-18T15:51:54;16.92;;;9.80;;
23888;SDS011;12125;40.102;18.326;2022-12-18T15:54:24;32.60;;;22.10;;